ZGSZZUCK

Guest
Details From ZGSZ - BAOAN INTL
To ZUCK - JIANGBEI
Flight Number -
Tags decoded
Created
Modified
Stats Distance 604 nm / 1,118 km
Max Altitude 0 ft / 0 m
Waypoints 5
Social Downloads 0
Likes 0
Share VATSIM

Download

Looking for another format? Having issues loading an existing format? Contact us
Advertisement - Login to hide

Notes

Requested: ZGSZ SHL A461 YIN G586 LAGEX W182 AGTIS W3 QJG ZUCK Unmatched points: A461 G586 LAGEX W182 AGTIS

Route

ZGSZ SHL YIN QJG ZUCK

ID Type Via Altitude Latitude Longitude Leg Dist Tot Dist Heading (true) Name
O ZGSZ APT - 0 ft / 0 m 22.63926˚ 113.81066˚ - 0 nm - BAOAN INTL
SHL VOR - 0 ft / 0 m 23.09000˚ 113.85333˚ 27 nm 27 nm 5° / 5° SHILONG VOR-DME
YIN VOR - 0 ft / 0 m 24.20667˚ 113.41000˚ 71 nm 98 nm 340° / 340° YINGDE VOR-DME
QJG VOR - 0 ft / 0 m 29.04667˚ 106.65333˚ 464 nm 563 nm 310° / 307° QIJIANG VOR-DME
O ZUCK APT - 0 ft / 0 m 29.71922˚ 106.64168˚ 40 nm 603 nm 359° / 359° JIANGBEI

Altitude Profile

Advertisement - Login to hide

Weather


0- 5 10 15 20 25 30 35+ Temperature / ° C

Clouds and Precipitation
Forecast for 2017-12-15 12:00 UTC. Updated an hour ago

Ground ~20,000 ft ~40,000 ft Winds

ZGSZ

Details ICAO ZGSZ (SZX)
Name BAOAN INTL
Region China
Timezone Asia/Shanghai (UTC+8.0)
Stats Elevation 13 ft / 4 m (AMSL)
Location 22.639259° 113.810663°
Runways 1
Magnetic Variation 2.862° W

METAR

ZGSZ 151000Z 32004MPS 5000 HZ BKN033 20/15 Q1018 NOSIG

Decode

TAF

Not found

Departure Runways

ID Width Length Bearing (true) Bearing (mag) Surface Threshold Offset Overrun Length
15 148 ft / 45 m 11,209 ft / 3,416 m 153.15° 156.01° Concrete 0 ft / 0 m 197 ft / 60 m
33 148 ft / 45 m 11,209 ft / 3,416 m 333.15° 336.01° Concrete 0 ft / 0 m 197 ft / 60 m

ZUCK

Details ICAO ZUCK (CKG)
Name JIANGBEI
Region China
Timezone Asia/Chongqing (UTC+8.0)
Stats Elevation 1,365 ft / 416 m (AMSL)
Location 29.719217° 106.641677°
Runways 1
Magnetic Variation 2.488° W

METAR

ZUCK 151000Z 10002MPS 060V130 4000 BR BKN020 OVC040 09/06 Q1026 NOSIG

Decode

TAF

Not found

Destination Runways

ID Width Length Bearing (true) Bearing (mag) Surface Threshold Offset Overrun Length
02 148 ft / 45 m 10,543 ft / 3,213 m 16.82° 19.31° Concrete 0 ft / 0 m 197 ft / 60 m
20 148 ft / 45 m 10,543 ft / 3,213 m 196.82° 199.31° Concrete 0 ft / 0 m 197 ft / 60 m

Approach Navaids

Runway Type Ident Frequency Range Bearing (true) Bearing (mag) Slope Elevation
02 Localiser IWX 109.70 MHz 18 nm / 33 km 16.82° 19.31° - 1,365 ft / 416 m (AMSL)
02 Glidescope IWX 109.70 MHz 10 nm / 19 km 16.82° 19.31° 3.00° 1,365 ft / 416 m (AMSL)
02 DME IWX 109.70 MHz 18 nm / 33 km - - - 1,365 ft / 416 m (AMSL)
20 Localiser IOS 108.10 MHz 18 nm / 33 km 196.82° 199.31° - 1,365 ft / 416 m (AMSL)
20 Glidescope IOS 108.10 MHz 10 nm / 19 km 196.82° 199.31° 3.00° 1,365 ft / 416 m (AMSL)

Popular Alternatives